Time;durP1;ratioP1;P1;durP2;ratioP2;P2;SDS_P1;SDS_P2;PMS_P1;PMS_P2;Temp;Humidity;BMP_temperature;BMP_pressure;BME280_temperature;BME280_humidity;BME280_pressure;Samples;Min_cycle;Max_cycle;Signal;HPM_P1;HPM_P2
2023/09/03 00:02:08;;;;;;;;;;;16.80;99.90;;;;;;8368005;28;19971;-69
2023/09/03 00:06:10;;;;;;;;;;;16.80;99.90;;;;;;8370281;28;19924;-69
2023/09/03 00:10:11;;;;;;;;;;;16.80;99.90;;;;;;8370041;28;19925;-69
2023/09/03 00:14:13;;;;;;;;;;;16.80;99.90;;;;;;8364583;28;19925;-69
2023/09/03 00:18:15;;;;;;;;;;;16.80;99.90;;;;;;8373347;28;20402;-70
2023/09/03 00:22:17;;;;;;;;;;;16.80;99.90;;;;;;8369089;28;20308;-70
2023/09/03 00:26:21;;;;;;;;;;;16.70;99.90;;;;;;8374981;28;20379;-70
2023/09/03 00:30:22;;;;;;;;;;;16.60;99.90;;;;;;8370493;28;20380;-70
2023/09/03 00:34:24;;;;;;;;;;;16.60;99.90;;;;;;8374128;28;19931;-70
2023/09/03 00:38:26;;;;;;;;;;;16.50;99.90;;;;;;8383199;28;19929;-70
2023/09/03 00:42:27;;;;;;;;;;;16.40;99.90;;;;;;8369556;28;19935;-70
2023/09/03 00:46:29;;;;;;;;;;;16.30;99.90;;;;;;8380390;28;19924;-70
2023/09/03 00:50:31;;;;;;;;;;;16.20;99.90;;;;;;8381650;28;19931;-69
2023/09/03 00:54:32;;;;;;;;;;;16.10;99.90;;;;;;8374380;28;19979;-70
2023/09/03 00:58:35;;;;;;;;;;;16.00;99.90;;;;;;8376240;28;19925;-69
2023/09/03 01:02:37;;;;;;;;;;;15.90;99.90;;;;;;8373624;28;20334;-70
2023/09/03 01:06:39;;;;;;;;;;;15.90;99.90;;;;;;8361665;28;19929;-69
2023/09/03 01:10:59;;;;;;;;;;;15.80;99.90;;;;;;8373289;28;19925;-70
2023/09/03 01:15:07;;;;;;;;;;;15.70;99.90;;;;;;8374046;28;19924;-69
2023/09/03 01:19:21;;;;;;;;;;;15.70;99.90;;;;;;8375946;28;19932;-70
2023/09/03 01:23:26;;;;;;;;;;;15.70;99.90;;;;;;8367916;28;19963;-69
2023/09/03 01:27:39;;;;;;;;;;;15.70;99.90;;;;;;8358014;28;19932;-70
2023/09/03 01:31:42;;;;;;;;;;;15.70;99.90;;;;;;8368872;28;20281;-69
2023/09/03 01:35:44;;;;;;;;;;;15.60;99.90;;;;;;8367428;28;19937;-69
2023/09/03 01:39:46;;;;;;;;;;;15.60;99.90;;;;;;8377125;28;19929;-69
2023/09/03 01:43:47;;;;;;;;;;;15.60;99.90;;;;;;8368240;28;19924;-69
2023/09/03 01:47:53;;;;;;;;;;;15.60;99.90;;;;;;8377800;28;20338;-69
2023/09/03 01:52:00;;;;;;;;;;;15.60;99.90;;;;;;8372858;28;20292;-70
2023/09/03 01:56:02;;;;;;;;;;;15.50;99.90;;;;;;8372571;28;19924;-69
2023/09/03 02:00:08;;;;;;;;;;;15.40;99.90;;;;;;8370494;28;20371;-69
2023/09/03 02:04:10;;;;;;;;;;;15.40;99.90;;;;;;8364478;28;20296;-69
2023/09/03 02:08:11;;;;;;;;;;;15.40;99.90;;;;;;8383435;28;19929;-69
2023/09/03 02:12:13;;;;;;;;;;;15.40;99.90;;;;;;8373186;28;20226;-69
2023/09/03 02:16:14;;;;;;;;;;;15.30;99.90;;;;;;8371232;28;19936;-69
2023/09/03 02:20:17;;;;;;;;;;;15.30;99.90;;;;;;8369380;28;20374;-69
2023/09/03 02:24:19;;;;;;;;;;;15.20;99.90;;;;;;8372822;28;20429;-69
2023/09/03 02:28:20;;;;;;;;;;;15.20;99.90;;;;;;8373018;28;19924;-69
2023/09/03 02:32:22;;;;;;;;;;;15.20;99.90;;;;;;8365494;28;19932;-69
2023/09/03 02:36:24;;;;;;;;;;;15.20;99.90;;;;;;8368425;28;19925;-69
2023/09/03 02:40:26;;;;;;;;;;;15.20;99.90;;;;;;8371560;28;19924;-69
2023/09/03 02:44:27;;;;;;;;;;;15.10;99.90;;;;;;8375432;28;20007;-69
2023/09/03 02:48:29;;;;;;;;;;;15.00;99.90;;;;;;8362502;28;20391;-69
2023/09/03 02:52:31;;;;;;;;;;;15.00;99.90;;;;;;8368845;28;19929;-69
2023/09/03 02:56:33;;;;;;;;;;;15.00;99.90;;;;;;8377931;28;20429;-69
2023/09/03 03:00:35;;;;;;;;;;;15.00;99.90;;;;;;8368925;28;20362;-69
2023/09/03 03:04:36;;;;;;;;;;;14.90;99.90;;;;;;8375530;28;19932;-69
2023/09/03 03:08:38;;;;;;;;;;;15.00;99.90;;;;;;8378165;28;20303;-69
2023/09/03 03:12:42;;;;;;;;;;;14.90;99.90;;;;;;8373823;28;19932;-69
2023/09/03 03:16:44;;;;;;;;;;;14.90;99.90;;;;;;8367525;28;19928;-69
2023/09/03 03:20:45;;;;;;;;;;;14.80;99.90;;;;;;8374705;28;19982;-69
2023/09/03 03:24:47;;;;;;;;;;;14.80;99.90;;;;;;8374536;28;19947;-69
2023/09/03 03:28:49;;;;;;;;;;;14.70;99.90;;;;;;8367294;28;19929;-69
2023/09/03 03:32:52;;;;;;;;;;;14.70;99.90;;;;;;8363788;28;19931;-69
2023/09/03 03:36:53;;;;;;;;;;;14.70;99.90;;;;;;8370787;28;19929;-69
2023/09/03 03:41:08;;;;;;;;;;;14.70;99.90;;;;;;8377720;28;19931;-69
2023/09/03 03:45:10;;;;;;;;;;;14.70;99.90;;;;;;8371814;28;20303;-69
2023/09/03 03:49:12;;;;;;;;;;;14.60;99.90;;;;;;8365688;28;19932;-69
2023/09/03 03:58:45;;;;;;;;;;;14.40;99.90;;;;;;8366772;28;19934;-69
2023/09/03 04:02:47;;;;;;;;;;;14.40;99.90;;;;;;8368835;28;20379;-69
2023/09/03 04:06:49;;;;;;;;;;;14.40;99.90;;;;;;8366399;28;19929;-69
2023/09/03 04:10:56;;;;;;;;;;;14.50;99.90;;;;;;8374153;28;19931;-69
2023/09/03 04:14:58;;;;;;;;;;;14.50;99.90;;;;;;8355819;28;19924;-69
2023/09/03 04:29:07;;;;;;;;;;;14.50;99.90;;;;;;8378040;28;20062;-69
2023/09/03 04:33:09;;;;;;;;;;;14.40;99.90;;;;;;8362670;28;19936;-69
2023/09/03 04:37:10;;;;;;;;;;;14.50;99.90;;;;;;8378904;28;20387;-69
2023/09/03 04:41:12;;;;;;;;;;;14.50;99.90;;;;;;8385382;28;20295;-69
2023/09/03 04:45:13;;;;;;;;;;;14.40;99.90;;;;;;8374281;28;19975;-69
2023/09/03 04:49:15;;;;;;;;;;;14.50;99.90;;;;;;8383157;28;19925;-69
2023/09/03 04:53:17;;;;;;;;;;;14.50;99.90;;;;;;8371395;28;19932;-69
2023/09/03 04:57:19;;;;;;;;;;;14.40;99.90;;;;;;8382956;28;19951;-69
2023/09/03 05:01:21;;;;;;;;;;;14.40;99.90;;;;;;8370313;28;19925;-69
2023/09/03 05:05:22;;;;;;;;;;;14.40;99.90;;;;;;8376687;28;19924;-70
2023/09/03 05:09:24;;;;;;;;;;;14.40;99.90;;;;;;8355069;28;19932;-69
2023/09/03 05:13:25;;;;;;;;;;;14.40;99.90;;;;;;8364130;28;19925;-69
2023/09/03 05:17:27;;;;;;;;;;;14.40;99.90;;;;;;8374330;28;20368;-69
2023/09/03 05:21:29;;;;;;;;;;;14.40;99.90;;;;;;8378183;28;19932;-69
2023/09/03 05:25:31;;;;;;;;;;;14.40;99.90;;;;;;8383531;28;19925;-69
2023/09/03 05:29:32;;;;;;;;;;;14.40;99.90;;;;;;8364469;28;20299;-69
2023/09/03 05:33:34;;;;;;;;;;;14.40;99.90;;;;;;8381928;28;19928;-69
2023/09/03 05:37:35;;;;;;;;;;;14.40;99.90;;;;;;8381490;28;19925;-69
2023/09/03 05:41:37;;;;;;;;;;;14.40;99.90;;;;;;8358969;28;20333;-69
2023/09/03 05:45:44;;;;;;;;;;;14.40;99.90;;;;;;8374169;28;19928;-69
2023/09/03 05:49:46;;;;;;;;;;;14.40;99.90;;;;;;8369207;28;19935;-69
2023/09/03 05:53:47;;;;;;;;;;;14.40;99.90;;;;;;8379041;28;19932;-69
2023/09/03 05:57:52;;;;;;;;;;;14.40;99.90;;;;;;8379383;28;19925;-69
2023/09/03 06:01:53;;;;;;;;;;;14.40;99.90;;;;;;8379207;28;20050;-69
2023/09/03 06:05:55;;;;;;;;;;;14.50;99.90;;;;;;8366508;28;19929;-69
2023/09/03 06:09:57;;;;;;;;;;;14.50;99.90;;;;;;8378642;28;20376;-69
2023/09/03 06:13:59;;;;;;;;;;;14.60;99.90;;;;;;8375195;28;19924;-69
2023/09/03 06:18:00;;;;;;;;;;;14.60;99.90;;;;;;8379607;28;19928;-69
2023/09/03 06:22:02;;;;;;;;;;;14.60;99.90;;;;;;8376027;28;19965;-69
2023/09/03 06:26:04;;;;;;;;;;;14.70;99.90;;;;;;8369571;28;19932;-69
2023/09/03 06:30:06;;;;;;;;;;;14.80;99.90;;;;;;8379207;28;20283;-69
2023/09/03 06:34:08;;;;;;;;;;;14.80;99.90;;;;;;8367703;28;19924;-69
2023/09/03 06:38:09;;;;;;;;;;;14.80;99.90;;;;;;8376096;28;20042;-70
2023/09/03 06:42:11;;;;;;;;;;;14.90;99.90;;;;;;8373275;28;19924;-69
2023/09/03 06:46:13;;;;;;;;;;;15.00;99.90;;;;;;8357084;28;19936;-69
2023/09/03 06:50:16;;;;;;;;;;;15.00;99.90;;;;;;8359229;28;19933;-69
2023/09/03 06:54:18;;;;;;;;;;;15.10;99.90;;;;;;8380242;28;19924;-69
2023/09/03 06:58:19;;;;;;;;;;;15.20;99.90;;;;;;8365505;28;20375;-69
2023/09/03 07:02:22;;;;;;;;;;;15.20;99.90;;;;;;8367273;28;20031;-69
2023/09/03 07:06:24;;;;;;;;;;;15.30;99.90;;;;;;8375626;28;20375;-69
2023/09/03 07:10:26;;;;;;;;;;;15.40;99.90;;;;;;8372910;28;19931;-69
2023/09/03 07:14:31;;;;;;;;;;;15.50;99.90;;;;;;8376136;28;20269;-69
2023/09/03 07:18:33;;;;;;;;;;;15.60;99.90;;;;;;8367888;28;19985;-69
2023/09/03 07:22:34;;;;;;;;;;;15.70;99.90;;;;;;8367777;28;20342;-69
2023/09/03 07:26:36;;;;;;;;;;;15.80;99.90;;;;;;8379725;28;19925;-69
2023/09/03 07:30:38;;;;;;;;;;;15.90;99.90;;;;;;8370313;28;20518;-69
2023/09/03 07:34:40;;;;;;;;;;;16.00;99.90;;;;;;8370202;28;20193;-69
2023/09/03 07:38:42;;;;;;;;;;;16.00;99.90;;;;;;8373902;28;19925;-69
2023/09/03 07:42:44;;;;;;;;;;;16.10;99.90;;;;;;8362214;28;19935;-69
2023/09/03 07:46:45;;;;;;;;;;;16.20;99.90;;;;;;8378133;28;19932;-69
2023/09/03 07:50:49;;;;;;;;;;;16.30;99.90;;;;;;8377480;28;19935;-69
2023/09/03 07:54:51;;;;;;;;;;;16.40;99.90;;;;;;8379976;28;19924;-69
2023/09/03 07:58:53;;;;;;;;;;;16.50;99.90;;;;;;8377421;28;19924;-69
2023/09/03 08:02:54;;;;;;;;;;;16.60;99.90;;;;;;8376140;28;19925;-69
2023/09/03 08:06:56;;;;;;;;;;;16.70;99.90;;;;;;8374332;28;19935;-69
2023/09/03 08:10:58;;;;;;;;;;;16.80;99.90;;;;;;8379298;28;19931;-69
2023/09/03 08:15:00;;;;;;;;;;;16.90;99.90;;;;;;8385086;28;19970;-69
2023/09/03 08:19:01;;;;;;;;;;;16.90;99.90;;;;;;8384698;28;20375;-69
2023/09/03 08:23:03;;;;;;;;;;;17.00;99.90;;;;;;8378314;28;19929;-69
2023/09/03 08:27:05;;;;;;;;;;;17.10;99.90;;;;;;8379065;28;19924;-69
2023/09/03 08:31:06;;;;;;;;;;;17.20;99.90;;;;;;8378588;28;19970;-69
2023/09/03 08:35:08;;;;;;;;;;;17.30;99.90;;;;;;8381579;28;19924;-69
2023/09/03 08:39:10;;;;;;;;;;;17.40;99.90;;;;;;8375515;28;20362;-69
2023/09/03 08:43:12;;;;;;;;;;;17.60;99.90;;;;;;8375495;28;20578;-70
2023/09/03 08:47:16;;;;;;;;;;;17.70;99.90;;;;;;8385880;28;19932;-69
2023/09/03 08:51:18;;;;;;;;;;;17.70;99.90;;;;;;8364529;28;19925;-70
2023/09/03 08:55:21;;;;;;;;;;;17.80;99.90;;;;;;8380751;28;20427;-70
2023/09/03 08:59:23;;;;;;;;;;;18.00;99.90;;;;;;8376453;28;19940;-70
2023/09/03 09:03:28;;;;;;;;;;;18.10;99.90;;;;;;8378258;28;19932;-70
2023/09/03 09:07:29;;;;;;;;;;;18.20;99.90;;;;;;8373897;28;20395;-70
2023/09/03 09:11:33;;;;;;;;;;;18.30;99.90;;;;;;8373006;28;19978;-70
2023/09/03 09:15:35;;;;;;;;;;;18.30;99.90;;;;;;8382347;28;20441;-70
2023/09/03 09:19:37;;;;;;;;;;;18.40;99.90;;;;;;8376059;28;19978;-69
2023/09/03 09:23:39;;;;;;;;;;;18.50;99.90;;;;;;8372976;28;19948;-70
2023/09/03 09:27:40;;;;;;;;;;;18.50;99.90;;;;;;8381264;28;19928;-70
2023/09/03 09:31:44;;;;;;;;;;;18.50;99.90;;;;;;8384303;28;20380;-69
2023/09/03 09:35:46;;;;;;;;;;;18.60;99.90;;;;;;8361685;28;20379;-69
2023/09/03 09:39:49;;;;;;;;;;;18.70;99.90;;;;;;8384733;28;19925;-70
2023/09/03 09:43:51;;;;;;;;;;;18.70;99.90;;;;;;8367503;28;20380;-70
2023/09/03 09:48:06;;;;;;;;;;;18.80;99.90;;;;;;8367658;28;19968;-70
2023/09/03 09:52:08;;;;;;;;;;;18.90;99.90;;;;;;8368565;28;20012;-69
2023/09/03 09:56:12;;;;;;;;;;;19.00;99.90;;;;;;8371041;28;19984;-70
2023/09/03 10:00:14;;;;;;;;;;;19.00;99.90;;;;;;8377503;28;19974;-70
2023/09/03 10:04:24;;;;;;;;;;;19.10;99.90;;;;;;8377569;28;19925;-70
2023/09/03 10:08:26;;;;;;;;;;;19.20;99.90;;;;;;8383536;28;20290;-70
2023/09/03 10:12:28;;;;;;;;;;;19.30;99.90;;;;;;8364166;28;19925;-70
2023/09/03 10:16:30;;;;;;;;;;;19.40;99.90;;;;;;8372713;28;20433;-70
2023/09/03 10:20:34;;;;;;;;;;;19.50;99.90;;;;;;8371494;28;19932;-70
2023/09/03 10:24:37;;;;;;;;;;;19.50;99.90;;;;;;8376175;28;19932;-70
2023/09/03 10:28:40;;;;;;;;;;;19.60;99.90;;;;;;8376935;28;20352;-70
2023/09/03 10:32:43;;;;;;;;;;;19.60;99.90;;;;;;8368163;28;19950;-70
2023/09/03 10:37:01;;;;;;;;;;;19.70;99.90;;;;;;8368289;28;19928;-70
2023/09/03 10:41:16;;;;;;;;;;;19.70;99.90;;;;;;8370501;28;20530;-70
2023/09/03 10:45:18;;;;;;;;;;;19.80;99.90;;;;;;8374317;28;19932;-70
2023/09/03 10:49:20;;;;;;;;;;;19.90;99.90;;;;;;8378228;28;19929;-70
2023/09/03 10:53:41;;;;;;;;;;;20.10;99.90;;;;;;8376050;28;19951;-70
2023/09/03 10:57:44;;;;;;;;;;;20.10;99.90;;;;;;8373852;28;20437;-70
2023/09/03 11:01:45;;;;;;;;;;;20.20;99.90;;;;;;8353383;28;20006;-70
2023/09/03 11:06:06;;;;;;;;;;;20.30;99.90;;;;;;8373082;28;19928;-70
2023/09/03 11:10:21;;;;;;;;;;;20.30;99.90;;;;;;8386462;28;19932;-70
2023/09/03 11:14:28;;;;;;;;;;;20.40;99.90;;;;;;8369773;28;20306;-70
2023/09/03 11:18:30;;;;;;;;;;;20.50;99.90;;;;;;8373448;28;20372;-70
2023/09/03 11:22:37;;;;;;;;;;;20.50;99.90;;;;;;8375551;28;20303;-70
2023/09/03 11:26:38;;;;;;;;;;;20.50;99.90;;;;;;8374477;28;20287;-70
2023/09/03 11:30:41;;;;;;;;;;;20.60;99.90;;;;;;8383448;28;19924;-70
2023/09/03 11:34:42;;;;;;;;;;;20.70;99.90;;;;;;8369442;28;19948;-70
2023/09/03 11:38:44;;;;;;;;;;;20.80;99.90;;;;;;8366427;28;19951;-70
2023/09/03 11:42:49;;;;;;;;;;;21.00;99.90;;;;;;8372712;28;19928;-70
2023/09/03 11:46:55;;;;;;;;;;;21.00;99.90;;;;;;8384446;28;20291;-70
2023/09/03 11:50:56;;;;;;;;;;;21.10;99.90;;;;;;8364570;28;19979;-70
2023/09/03 11:54:58;;;;;;;;;;;21.20;99.90;;;;;;8371422;28;19931;-70
2023/09/03 11:59:01;;;;;;;;;;;21.30;99.90;;;;;;8372945;28;19924;-70
2023/09/03 12:03:03;;;;;;;;;;;21.30;99.90;;;;;;8370154;28;19928;-70
2023/09/03 12:07:12;;;;;;;;;;;21.30;99.90;;;;;;8382176;28;19928;-70
2023/09/03 12:11:14;;;;;;;;;;;21.30;99.90;;;;;;8344862;28;20323;-70
2023/09/03 12:15:17;;;;;;;;;;;21.30;99.90;;;;;;8376068;28;19928;-70
2023/09/03 12:19:18;;;;;;;;;;;21.40;99.90;;;;;;8365081;28;19925;-70
2023/09/03 12:23:20;;;;;;;;;;;21.40;99.90;;;;;;8372380;28;20355;-70
2023/09/03 12:27:23;;;;;;;;;;;21.40;99.90;;;;;;8362717;28;19966;-70
2023/09/03 12:31:40;;;;;;;;;;;21.40;99.90;;;;;;8368742;28;20437;-70
2023/09/03 12:35:42;;;;;;;;;;;21.40;99.90;;;;;;8382806;28;19951;-70
2023/09/03 12:39:44;;;;;;;;;;;21.40;99.90;;;;;;8375474;28;19959;-70
2023/09/03 12:43:45;;;;;;;;;;;21.50;99.90;;;;;;8370064;28;20287;-70
2023/09/03 12:47:47;;;;;;;;;;;21.50;99.90;;;;;;8383226;28;19929;-70
2023/09/03 12:51:49;;;;;;;;;;;21.50;99.90;;;;;;8357349;28;20842;-70
2023/09/03 12:55:51;;;;;;;;;;;21.50;99.90;;;;;;8378317;28;20330;-70
2023/09/03 12:59:52;;;;;;;;;;;21.50;99.90;;;;;;8377664;28;19924;-70
2023/09/03 13:03:54;;;;;;;;;;;21.50;99.90;;;;;;8375159;28;19948;-70
2023/09/03 13:07:56;;;;;;;;;;;21.50;99.90;;;;;;8377448;28;19978;-70
2023/09/03 13:11:57;;;;;;;;;;;21.50;99.90;;;;;;8378355;28;19924;-70
2023/09/03 13:16:00;;;;;;;;;;;21.50;99.90;;;;;;8383131;28;19967;-70
2023/09/03 13:20:02;;;;;;;;;;;21.50;99.90;;;;;;8375606;28;19925;-70
2023/09/03 13:24:05;;;;;;;;;;;21.50;99.90;;;;;;8379989;28;20334;-70
2023/09/03 13:28:08;;;;;;;;;;;21.50;99.90;;;;;;8381933;28;19929;-70
2023/09/03 13:32:09;;;;;;;;;;;21.50;99.90;;;;;;8359016;28;20360;-70
2023/09/03 13:36:11;;;;;;;;;;;21.60;99.90;;;;;;8375799;28;19925;-70
2023/09/03 13:40:13;;;;;;;;;;;21.70;99.90;;;;;;8377295;28;19924;-70
2023/09/03 13:44:15;;;;;;;;;;;21.70;99.90;;;;;;8374251;28;20284;-70
2023/09/03 13:48:16;;;;;;;;;;;21.80;99.90;;;;;;8389229;28;19932;-70
2023/09/03 13:52:18;;;;;;;;;;;21.90;99.90;;;;;;8378978;28;19936;-70
2023/09/03 13:56:20;;;;;;;;;;;22.00;99.90;;;;;;8370179;28;19947;-70
2023/09/03 14:00:22;;;;;;;;;;;22.10;99.90;;;;;;8377685;28;19924;-70
2023/09/03 14:04:23;;;;;;;;;;;22.10;99.90;;;;;;8368207;28;19948;-70
2023/09/03 14:08:25;;;;;;;;;;;22.20;99.90;;;;;;8383057;28;20022;-70
2023/09/03 14:12:27;;;;;;;;;;;22.30;99.90;;;;;;8378331;28;19925;-71
2023/09/03 14:16:28;;;;;;;;;;;22.30;99.90;;;;;;8372943;28;20380;-70
2023/09/03 14:20:35;;;;;;;;;;;22.30;99.90;;;;;;8371355;28;20349;-70
2023/09/03 14:24:37;;;;;;;;;;;22.30;99.90;;;;;;8371654;28;19986;-70
2023/09/03 14:28:38;;;;;;;;;;;22.40;99.90;;;;;;8352760;28;19925;-70
2023/09/03 14:32:40;;;;;;;;;;;22.50;99.90;;;;;;8383652;28;20299;-70
2023/09/03 14:36:42;;;;;;;;;;;22.50;99.90;;;;;;8372491;28;19928;-70
2023/09/03 14:40:48;;;;;;;;;;;22.60;99.90;;;;;;8372363;28;19924;-71
2023/09/03 14:44:50;;;;;;;;;;;22.60;99.90;;;;;;8379679;28;19978;-71
2023/09/03 14:48:52;;;;;;;;;;;22.70;99.90;;;;;;8378300;28;19979;-71
2023/09/03 14:52:53;;;;;;;;;;;22.80;99.90;;;;;;8368750;28;19925;-70
2023/09/03 14:56:55;;;;;;;;;;;23.00;99.90;;;;;;8376144;28;20384;-70
2023/09/03 15:00:57;;;;;;;;;;;23.00;99.90;;;;;;8370914;28;19970;-71
2023/09/03 15:04:59;;;;;;;;;;;23.10;99.90;;;;;;8376208;28;20022;-70
2023/09/03 15:09:01;;;;;;;;;;;23.20;99.90;;;;;;8378383;28;19978;-70
2023/09/03 15:13:02;;;;;;;;;;;23.10;99.90;;;;;;8369976;28;19928;-71
2023/09/03 15:17:04;;;;;;;;;;;23.10;99.90;;;;;;8377044;28;19933;-71
2023/09/03 15:21:06;;;;;;;;;;;23.10;99.90;;;;;;8372635;28;19925;-70
2023/09/03 15:25:07;;;;;;;;;;;23.10;99.90;;;;;;8368474;28;19975;-70
2023/09/03 15:29:09;;;;;;;;;;;23.10;99.90;;;;;;8369532;28;21337;-70
2023/09/03 15:33:11;;;;;;;;;;;23.10;99.90;;;;;;8366275;28;19928;-71
2023/09/03 15:37:12;;;;;;;;;;;23.20;99.90;;;;;;8376719;28;19928;-71
2023/09/03 15:41:14;;;;;;;;;;;23.20;99.90;;;;;;8374269;28;20299;-70
2023/09/03 15:45:16;;;;;;;;;;;23.30;99.90;;;;;;8367517;28;19947;-71
2023/09/03 15:49:17;;;;;;;;;;;23.20;99.90;;;;;;8366439;28;19925;-71
2023/09/03 15:53:19;;;;;;;;;;;23.20;99.90;;;;;;8367129;28;20295;-70
2023/09/03 15:57:21;;;;;;;;;;;23.20;99.90;;;;;;8377606;28;19932;-71
2023/09/03 16:01:23;;;;;;;;;;;23.20;99.90;;;;;;8379665;28;19928;-71
2023/09/03 16:05:24;;;;;;;;;;;23.20;99.90;;;;;;8377219;28;19928;-71
2023/09/03 16:09:26;;;;;;;;;;;23.40;99.90;;;;;;8377507;28;20073;-71
2023/09/03 16:13:28;;;;;;;;;;;23.50;99.90;;;;;;8378290;28;20346;-71
2023/09/03 16:17:31;;;;;;;;;;;23.40;99.90;;;;;;8377888;28;19924;-71
2023/09/03 16:21:37;;;;;;;;;;;23.40;99.90;;;;;;8375961;28;19978;-71
2023/09/03 16:25:38;;;;;;;;;;;23.40;99.90;;;;;;8375832;28;19979;-71
2023/09/03 16:29:40;;;;;;;;;;;23.30;99.90;;;;;;8377880;28;19951;-71
2023/09/03 16:33:41;;;;;;;;;;;23.20;99.90;;;;;;8379455;28;19929;-71
2023/09/03 16:37:43;;;;;;;;;;;23.10;99.90;;;;;;8381068;28;20031;-71
2023/09/03 16:41:45;;;;;;;;;;;23.00;99.90;;;;;;8354671;28;20843;-71
2023/09/03 16:45:46;;;;;;;;;;;23.00;99.90;;;;;;8381566;28;19928;-71
2023/09/03 16:49:51;;;;;;;;;;;22.90;99.90;;;;;;8380887;28;19932;-70
2023/09/03 16:53:52;;;;;;;;;;;22.90;99.90;;;;;;8379109;28;19932;-71
2023/09/03 16:57:54;;;;;;;;;;;22.90;99.90;;;;;;8365223;28;19967;-70
2023/09/03 17:01:56;;;;;;;;;;;22.80;99.90;;;;;;8365175;28;19940;-70
2023/09/03 17:05:57;;;;;;;;;;;22.80;99.90;;;;;;8377979;28;20689;-70
2023/09/03 17:09:59;;;;;;;;;;;22.90;99.90;;;;;;8365203;28;19939;-70
2023/09/03 17:14:01;;;;;;;;;;;22.80;99.90;;;;;;8364096;28;20334;-70
2023/09/03 17:18:02;;;;;;;;;;;22.80;99.90;;;;;;8378194;28;20434;-71
2023/09/03 17:22:05;;;;;;;;;;;22.60;99.90;;;;;;8371577;28;19968;-70
2023/09/03 17:26:07;;;;;;;;;;;22.60;99.90;;;;;;8371922;28;19924;-70
2023/09/03 17:30:24;;;;;;;;;;;22.40;99.90;;;;;;8375618;28;19947;-70
2023/09/03 17:34:26;;;;;;;;;;;22.30;99.90;;;;;;8372483;28;19939;-70
2023/09/03 17:38:27;;;;;;;;;;;22.20;99.90;;;;;;8378244;28;20376;-70
2023/09/03 17:42:29;;;;;;;;;;;22.10;99.90;;;;;;8379378;28;19924;-70
2023/09/03 17:46:31;;;;;;;;;;;22.00;99.90;;;;;;8373352;28;19929;-70
2023/09/03 17:50:33;;;;;;;;;;;21.90;99.90;;;;;;8367859;28;20015;-70
2023/09/03 17:54:35;;;;;;;;;;;21.80;99.90;;;;;;8381241;28;20287;-70
2023/09/03 17:58:36;;;;;;;;;;;21.80;99.90;;;;;;8380527;28;19925;-70
2023/09/03 18:02:38;;;;;;;;;;;21.70;99.90;;;;;;8379051;28;19924;-70
2023/09/03 18:06:39;;;;;;;;;;;21.60;99.90;;;;;;8353966;28;19932;-70
2023/09/03 18:10:41;;;;;;;;;;;21.50;99.90;;;;;;8372685;28;19965;-70
2023/09/03 18:14:43;;;;;;;;;;;21.50;99.90;;;;;;8371205;28;19982;-70
2023/09/03 18:18:45;;;;;;;;;;;21.40;99.90;;;;;;8376448;28;19990;-70
2023/09/03 18:22:47;;;;;;;;;;;21.30;99.90;;;;;;8375353;28;19928;-70
2023/09/03 18:26:48;;;;;;;;;;;21.20;99.90;;;;;;8379561;28;19928;-70
2023/09/03 18:30:50;;;;;;;;;;;21.10;99.90;;;;;;8373732;28;20297;-70
2023/09/03 18:34:51;;;;;;;;;;;21.00;99.90;;;;;;8379165;28;19969;-71
2023/09/03 18:38:53;;;;;;;;;;;21.00;99.90;;;;;;8385036;28;19943;-70
2023/09/03 18:42:56;;;;;;;;;;;20.90;99.90;;;;;;8373361;28;19967;-70
2023/09/03 18:47:00;;;;;;;;;;;20.80;99.90;;;;;;8369960;28;19928;-70
2023/09/03 18:51:02;;;;;;;;;;;20.60;99.90;;;;;;8370061;28;19929;-71
2023/09/03 18:55:04;;;;;;;;;;;20.50;99.90;;;;;;8382247;28;19929;-70
2023/09/03 18:59:06;;;;;;;;;;;20.50;99.90;;;;;;8375566;28;19940;-70
2023/09/03 19:03:08;;;;;;;;;;;20.40;99.90;;;;;;8370719;28;20628;-70
2023/09/03 19:07:11;;;;;;;;;;;20.30;99.90;;;;;;8373781;28;20010;-70
2023/09/03 19:11:12;;;;;;;;;;;20.20;99.90;;;;;;8368717;28;20421;-70
2023/09/03 19:15:14;;;;;;;;;;;20.20;99.90;;;;;;8373650;28;19928;-70
2023/09/03 19:19:16;;;;;;;;;;;20.10;99.90;;;;;;8369588;28;19928;-70
2023/09/03 19:23:18;;;;;;;;;;;20.00;99.90;;;;;;8370347;28;19932;-70
2023/09/03 19:27:20;;;;;;;;;;;19.90;99.90;;;;;;8373752;28;20335;-70
2023/09/03 19:31:22;;;;;;;;;;;19.80;99.90;;;;;;8345861;28;19976;-70
2023/09/03 19:35:24;;;;;;;;;;;19.70;99.90;;;;;;8368884;28;19925;-70
2023/09/03 19:39:25;;;;;;;;;;;19.70;99.90;;;;;;8364807;28;20433;-70
2023/09/03 19:43:27;;;;;;;;;;;19.60;99.90;;;;;;8373354;28;19935;-70
2023/09/03 19:47:29;;;;;;;;;;;19.50;99.90;;;;;;8373763;28;19931;-70
2023/09/03 19:51:30;;;;;;;;;;;19.50;99.90;;;;;;8366558;28;20357;-70
2023/09/03 19:55:32;;;;;;;;;;;19.40;99.90;;;;;;8372648;28;19974;-70
2023/09/03 19:59:34;;;;;;;;;;;19.40;99.90;;;;;;8371757;28;19932;-70
2023/09/03 20:03:35;;;;;;;;;;;19.30;99.90;;;;;;8358446;28;19979;-70
2023/09/03 20:07:37;;;;;;;;;;;19.20;99.90;;;;;;8372926;28;20323;-70
2023/09/03 20:11:39;;;;;;;;;;;19.10;99.90;;;;;;8351224;28;19964;-70
2023/09/03 20:15:40;;;;;;;;;;;19.10;99.90;;;;;;8379390;28;19950;-70
2023/09/03 20:19:44;;;;;;;;;;;19.00;99.90;;;;;;8372952;28;19932;-70
2023/09/03 20:23:46;;;;;;;;;;;18.90;99.90;;;;;;8368489;28;19931;-70
2023/09/03 20:27:47;;;;;;;;;;;18.80;99.90;;;;;;8372755;28;19933;-70
2023/09/03 20:31:49;;;;;;;;;;;18.70;99.90;;;;;;8376429;28;19925;-70
2023/09/03 20:35:53;;;;;;;;;;;18.70;99.90;;;;;;8364882;28;19982;-70
2023/09/03 20:39:55;;;;;;;;;;;18.60;99.90;;;;;;8374803;28;19932;-70
2023/09/03 20:43:56;;;;;;;;;;;18.50;99.90;;;;;;8370501;28;20296;-70
2023/09/03 20:47:58;;;;;;;;;;;18.50;99.90;;;;;;8372756;28;19924;-70
2023/09/03 20:52:00;;;;;;;;;;;18.40;99.90;;;;;;8345146;28;21047;-70
2023/09/03 20:56:01;;;;;;;;;;;18.40;99.90;;;;;;8375857;28;20287;-70
2023/09/03 21:00:04;;;;;;;;;;;18.40;99.90;;;;;;8360150;28;19924;-70
2023/09/03 21:04:06;;;;;;;;;;;18.30;99.90;;;;;;8361136;28;19932;-70
2023/09/03 21:08:08;;;;;;;;;;;18.30;99.90;;;;;;8364946;28;19935;-69
2023/09/03 21:12:09;;;;;;;;;;;18.20;99.90;;;;;;8369646;28;19924;-70
2023/09/03 21:16:11;;;;;;;;;;;18.20;99.90;;;;;;8374603;28;19932;-70
2023/09/03 21:20:13;;;;;;;;;;;18.10;99.90;;;;;;8372320;28;19924;-70
2023/09/03 21:24:15;;;;;;;;;;;18.00;99.90;;;;;;8368942;28;19924;-70
2023/09/03 21:28:17;;;;;;;;;;;18.00;99.90;;;;;;8377659;28;20013;-70
2023/09/03 21:32:18;;;;;;;;;;;17.90;99.90;;;;;;8375717;28;19925;-70
2023/09/03 21:36:21;;;;;;;;;;;17.80;99.90;;;;;;8352130;28;19925;-70
2023/09/03 21:40:23;;;;;;;;;;;17.80;99.90;;;;;;8379643;28;19928;-70
2023/09/03 21:44:24;;;;;;;;;;;17.80;99.90;;;;;;8374779;28;19932;-70
2023/09/03 21:48:26;;;;;;;;;;;17.70;99.90;;;;;;8368250;28;19925;-70
2023/09/03 21:52:28;;;;;;;;;;;17.70;99.90;;;;;;8377913;28;19925;-70
2023/09/03 21:56:29;;;;;;;;;;;17.60;99.90;;;;;;8353151;28;19929;-70
2023/09/03 22:00:31;;;;;;;;;;;17.60;99.90;;;;;;8365373;28;19933;-70
2023/09/03 22:04:33;;;;;;;;;;;17.60;99.90;;;;;;8354443;28;20372;-70
2023/09/03 22:08:34;;;;;;;;;;;17.50;99.90;;;;;;8372347;28;19940;-70
2023/09/03 22:12:36;;;;;;;;;;;17.40;99.90;;;;;;8380055;28;19978;-70
2023/09/03 22:16:38;;;;;;;;;;;17.30;99.90;;;;;;8365710;28;20571;-70
2023/09/03 22:20:39;;;;;;;;;;;17.30;99.90;;;;;;8367402;28;20414;-70
2023/09/03 22:24:41;;;;;;;;;;;17.30;99.90;;;;;;8373199;28;19932;-70
2023/09/03 22:28:42;;;;;;;;;;;17.20;99.90;;;;;;8377090;28;20311;-70
2023/09/03 22:32:46;;;;;;;;;;;17.10;99.90;;;;;;8375278;28;21553;-70
2023/09/03 22:36:48;;;;;;;;;;;17.00;99.90;;;;;;8367363;28;20350;-70
2023/09/03 22:40:49;;;;;;;;;;;17.00;99.90;;;;;;8375801;28;19932;-70
2023/09/03 22:44:51;;;;;;;;;;;16.90;99.90;;;;;;8378381;28;19925;-70
2023/09/03 22:48:53;;;;;;;;;;;16.90;99.90;;;;;;8369147;28;20316;-70
2023/09/03 22:52:55;;;;;;;;;;;16.80;99.90;;;;;;8360379;28;19932;-70
2023/09/03 22:56:58;;;;;;;;;;;16.80;99.90;;;;;;8380719;28;20292;-69
2023/09/03 23:00:59;;;;;;;;;;;16.80;99.90;;;;;;8369084;28;19929;-70
2023/09/03 23:05:01;;;;;;;;;;;16.80;99.90;;;;;;8372889;28;19932;-70
2023/09/03 23:09:03;;;;;;;;;;;16.70;99.90;;;;;;8371095;28;19925;-70
2023/09/03 23:13:04;;;;;;;;;;;16.70;99.90;;;;;;8369412;28;19933;-70
2023/09/03 23:17:06;;;;;;;;;;;16.60;99.90;;;;;;8370918;28;20406;-69
2023/09/03 23:21:12;;;;;;;;;;;16.60;99.90;;;;;;8380552;28;19970;-70
2023/09/03 23:25:14;;;;;;;;;;;16.60;99.90;;;;;;8366904;28;19972;-70
2023/09/03 23:29:15;;;;;;;;;;;16.60;99.90;;;;;;8373622;28;19981;-70
2023/09/03 23:33:17;;;;;;;;;;;16.60;99.90;;;;;;8357512;28;19929;-70
2023/09/03 23:37:19;;;;;;;;;;;16.50;99.90;;;;;;8381435;28;20014;-70
2023/09/03 23:41:20;;;;;;;;;;;16.40;99.90;;;;;;8375255;28;19925;-70
2023/09/03 23:45:22;;;;;;;;;;;16.30;99.90;;;;;;8345335;28;19924;-70